createdAt,value
2017-06-03T00:00:27.497Z,0
2017-06-03T00:02:28.887Z,0
2017-06-03T00:04:30.398Z,0
2017-06-03T00:06:33.549Z,0
2017-06-03T00:08:36.791Z,0
2017-06-03T00:10:38.250Z,0
2017-06-03T00:12:40.163Z,0
2017-06-03T00:14:41.673Z,0
2017-06-03T00:16:43.706Z,0
2017-06-03T00:18:45.113Z,0
2017-06-03T00:20:46.613Z,0
2017-06-03T00:22:49.910Z,0
2017-06-03T00:24:51.311Z,0
2017-06-03T00:26:53.378Z,0
2017-06-03T00:28:54.869Z,0
2017-06-03T00:30:58.091Z,0
2017-06-03T00:32:59.532Z,0
2017-06-03T00:35:01.005Z,0
2017-06-03T00:37:02.470Z,0
2017-06-03T00:39:04.351Z,0
2017-06-03T00:41:05.852Z,0
2017-06-03T00:43:07.865Z,0
2017-06-03T00:45:09.774Z,0
2017-06-03T00:47:11.298Z,0
2017-06-03T00:49:14.586Z,0
2017-06-03T00:51:16.520Z,0
2017-06-03T00:53:19.740Z,0
2017-06-03T00:55:21.268Z,0
2017-06-03T00:57:22.732Z,0
2017-06-03T00:59:26.313Z,0
2017-06-03T01:01:28.292Z,0
2017-06-03T01:03:29.797Z,0
2017-06-03T01:05:32.955Z,0
2017-06-03T01:07:34.474Z,0
2017-06-03T01:09:36.419Z,0
2017-06-03T01:11:39.712Z,0
2017-06-03T01:13:42.316Z,0
2017-06-03T01:15:43.843Z,0
2017-06-03T01:17:45.321Z,0
2017-06-03T01:19:46.773Z,0
2017-06-03T01:21:48.260Z,0
2017-06-03T01:23:49.702Z,0
2017-06-03T01:25:51.173Z,0
2017-06-03T01:27:52.580Z,0
2017-06-03T01:29:54.022Z,0
2017-06-03T01:31:55.457Z,0
2017-06-03T01:33:57.458Z,0
2017-06-03T01:35:58.958Z,0
2017-06-03T01:38:00.457Z,0
2017-06-03T01:40:01.904Z,0
2017-06-03T01:42:03.343Z,0
2017-06-03T01:44:05.256Z,0
2017-06-03T01:46:08.512Z,0
2017-06-03T01:48:10.356Z,0
2017-06-03T01:50:12.416Z,0
2017-06-03T01:52:13.925Z,0
2017-06-03T01:54:17.044Z,0
2017-06-03T01:56:18.603Z,0
2017-06-03T01:58:20.493Z,0
2017-06-03T02:00:23.900Z,0
2017-06-03T02:02:26.914Z,0
2017-06-03T02:04:30.021Z,0
2017-06-03T02:06:31.534Z,0
2017-06-03T02:08:33.539Z,0
2017-06-03T02:10:36.791Z,0
2017-06-03T02:12:38.604Z,0
2017-06-03T02:14:42.011Z,0
2017-06-03T02:16:43.457Z,0
2017-06-03T02:18:44.913Z,0
2017-06-03T02:20:48.081Z,0
2017-06-03T02:22:49.442Z,0
2017-06-03T02:24:50.926Z,0
2017-06-03T02:26:52.876Z,0
2017-06-03T02:28:56.164Z,0
2017-06-03T02:30:57.493Z,0
2017-06-03T02:32:58.956Z,0
2017-06-03T02:35:02.453Z,0
2017-06-03T02:37:04.009Z,0
2017-06-03T02:39:05.461Z,0
2017-06-03T02:41:06.983Z,0
2017-06-03T02:43:08.868Z,0
2017-06-03T02:45:10.335Z,0
2017-06-03T02:47:11.808Z,0
2017-06-03T02:49:13.803Z,0
2017-06-03T02:51:15.838Z,0
2017-06-03T02:53:17.872Z,0
2017-06-03T02:55:19.896Z,0
2017-06-03T02:57:21.378Z,0
2017-06-03T02:59:24.469Z,0
2017-06-03T03:01:25.920Z,4
2017-06-03T03:03:28.252Z,4
2017-06-03T03:05:29.704Z,0
2017-06-03T03:07:31.182Z,0
2017-06-03T03:09:32.698Z,0
2017-06-03T03:11:35.755Z,4
2017-06-03T03:13:37.767Z,4
2017-06-03T03:15:40.886Z,0
2017-06-03T03:17:42.667Z,4
2017-06-03T03:19:44.135Z,4
2017-06-03T03:21:45.646Z,4
2017-06-03T03:23:47.168Z,0
2017-06-03T03:25:50.211Z,4
2017-06-03T03:27:51.602Z,4
2017-06-03T03:29:54.666Z,4
2017-06-03T03:31:56.628Z,4
2017-06-03T03:33:58.183Z,8
2017-06-03T03:36:01.678Z,8
2017-06-03T03:38:03.712Z,8
2017-06-03T03:40:05.175Z,8
2017-06-03T03:42:07.210Z,12
2017-06-03T03:44:08.725Z,8
2017-06-03T03:46:10.234Z,8
2017-06-03T03:48:12.270Z,8
2017-06-03T03:50:13.816Z,12
2017-06-03T03:52:16.912Z,12
2017-06-03T03:54:20.003Z,12
2017-06-03T03:56:21.461Z,12
2017-06-03T03:58:22.983Z,12
2017-06-03T04:00:24.458Z,12
2017-06-03T04:02:25.978Z,16
2017-06-03T04:04:27.465Z,16
2017-06-03T04:06:28.947Z,16
2017-06-03T04:08:30.407Z,16
2017-06-03T04:10:31.906Z,20
2017-06-03T04:12:33.843Z,20
2017-06-03T04:14:35.870Z,24
2017-06-03T04:16:37.915Z,28
2017-06-03T04:18:39.436Z,36
2017-06-03T04:20:40.923Z,44
2017-06-03T04:22:42.377Z,56
2017-06-03T04:24:44.403Z,60
2017-06-03T04:26:45.933Z,68
2017-06-03T04:28:48.994Z,76
2017-06-03T04:30:50.411Z,84
2017-06-03T04:32:52.476Z,96
2017-06-03T04:34:54.536Z,108
2017-06-03T04:36:56.539Z,120
2017-06-03T04:38:58.454Z,132
2017-06-03T04:41:00.512Z,136
2017-06-03T04:43:01.966Z,144
2017-06-03T04:45:03.415Z,148
2017-06-03T04:47:05.376Z,156
2017-06-03T04:49:06.824Z,168
2017-06-03T04:51:09.793Z,176
2017-06-03T04:53:11.809Z,176
2017-06-03T04:55:13.805Z,172
2017-06-03T04:57:15.320Z,164
2017-06-03T04:59:16.828Z,152
2017-06-03T05:01:18.354Z,144
2017-06-03T05:03:21.510Z,128
2017-06-03T05:05:23.080Z,116
2017-06-03T05:07:25.099Z,104
2017-06-03T05:09:26.605Z,92
2017-06-03T05:11:29.640Z,92
2017-06-03T05:13:31.173Z,96
2017-06-03T05:15:34.276Z,104
2017-06-03T05:17:35.734Z,104
2017-06-03T05:19:37.774Z,104
2017-06-03T05:21:39.378Z,108
2017-06-03T05:23:40.840Z,104
2017-06-03T05:25:42.298Z,96
2017-06-03T05:27:43.759Z,96
2017-06-03T05:29:45.209Z,96
2017-06-03T05:31:48.050Z,108
2017-06-03T05:33:50.070Z,116
2017-06-03T05:35:51.543Z,124
2017-06-03T05:37:53.036Z,136
2017-06-03T05:39:54.536Z,148
2017-06-03T05:41:56.617Z,160
2017-06-03T05:43:58.634Z,164
2017-06-03T05:46:01.120Z,168
2017-06-03T05:48:02.623Z,176
2017-06-03T05:50:04.808Z,188
2017-06-03T05:52:06.291Z,200
2017-06-03T05:54:08.701Z,208
2017-06-03T05:56:11.296Z,208
2017-06-03T05:58:13.874Z,200
2017-06-03T06:00:15.372Z,188
2017-06-03T06:02:16.868Z,184
2017-06-03T06:04:18.350Z,188
2017-06-03T06:06:20.935Z,184
2017-06-03T06:08:23.389Z,184
2017-06-03T06:10:24.834Z,188
2017-06-03T06:12:26.489Z,200
2017-06-03T06:14:28.786Z,208
2017-06-03T06:16:30.611Z,216
2017-06-03T06:18:34.236Z,216
2017-06-03T06:20:35.946Z,204
2017-06-03T06:22:37.533Z,196
2017-06-03T06:24:39.514Z,192
2017-06-03T06:26:41.083Z,192
2017-06-03T06:28:42.562Z,196
2017-06-03T06:30:44.578Z,196
2017-06-03T06:32:46.487Z,200
2017-06-03T06:34:48.140Z,192
2017-06-03T06:36:50.116Z,172
2017-06-03T06:38:52.535Z,168
2017-06-03T06:40:55.043Z,160
2017-06-03T06:42:57.158Z,156
2017-06-03T06:44:59.015Z,160
2017-06-03T06:47:00.520Z,176
2017-06-03T06:49:02.519Z,184
2017-06-03T06:51:03.992Z,184
2017-06-03T06:53:06.596Z,184
2017-06-03T06:55:08.058Z,188
2017-06-03T06:57:09.550Z,208
2017-06-03T06:59:11.427Z,232
2017-06-03T07:01:12.944Z,260
2017-06-03T07:03:14.474Z,268
2017-06-03T07:05:15.952Z,256
2017-06-03T07:07:17.851Z,236
2017-06-03T07:09:19.373Z,232
2017-06-03T07:11:20.851Z,240
2017-06-03T07:13:22.303Z,260
2017-06-03T07:15:23.779Z,272
2017-06-03T07:17:25.213Z,288
2017-06-03T07:19:27.201Z,312
2017-06-03T07:21:28.744Z,352
2017-06-03T07:23:30.232Z,392
2017-06-03T07:25:33.100Z,428
2017-06-03T07:27:34.582Z,480
2017-06-03T07:29:36.091Z,520
2017-06-03T07:31:38.358Z,528
2017-06-03T07:33:40.220Z,536
2017-06-03T07:35:42.104Z,576
2017-06-03T07:37:43.624Z,608
2017-06-03T07:39:45.585Z,624
2017-06-03T07:41:47.071Z,656
2017-06-03T07:43:48.535Z,684
2017-06-03T07:45:50.052Z,688
2017-06-03T07:47:52.038Z,692
2017-06-03T07:49:53.482Z,692
2017-06-03T07:51:56.987Z,724
2017-06-03T07:53:59.583Z,764
2017-06-03T07:56:01.018Z,756
2017-06-03T07:58:02.552Z,764
2017-06-03T08:00:04.066Z,820
2017-06-03T08:02:06.020Z,904
2017-06-03T08:04:08.965Z,968
2017-06-03T08:06:10.429Z,1036
2017-06-03T08:08:11.915Z,1124
2017-06-03T08:10:14.744Z,1060
2017-06-03T08:12:17.776Z,1044
2017-06-03T08:14:19.232Z,1100
2017-06-03T08:16:20.710Z,1232
2017-06-03T08:18:23.308Z,1256
2017-06-03T08:20:26.083Z,1248
2017-06-03T08:22:27.729Z,1296
2017-06-03T08:24:29.201Z,1588
2017-06-03T08:26:30.683Z,2368
2017-06-03T08:28:33.206Z,2876
2017-06-03T08:30:34.754Z,3088
2017-06-03T08:32:37.814Z,3192
2017-06-03T08:34:39.288Z,2700
2017-06-03T08:36:40.834Z,1700
2017-06-03T08:38:42.777Z,1552
2017-06-03T08:40:45.494Z,1564
2017-06-03T08:42:47.168Z,1612
2017-06-03T08:44:49.170Z,1900
2017-06-03T08:46:50.692Z,1980
2017-06-03T08:48:52.209Z,2016
2017-06-03T08:50:53.733Z,1964
2017-06-03T08:52:56.649Z,2756
2017-06-03T08:54:58.771Z,2676
2017-06-03T08:57:00.314Z,3052
2017-06-03T08:59:01.817Z,2960
2017-06-03T09:01:04.661Z,2868
2017-06-03T09:03:06.147Z,3076
2017-06-03T09:05:08.156Z,2768
2017-06-03T09:07:09.669Z,3104
2017-06-03T09:09:11.205Z,3148
2017-06-03T09:11:12.738Z,2988
2017-06-03T09:13:14.210Z,3064
2017-06-03T09:15:15.707Z,2904
2017-06-03T09:17:17.198Z,3120
2017-06-03T09:19:18.744Z,3208
2017-06-03T09:21:20.768Z,2904
2017-06-03T09:23:23.589Z,3012
2017-06-03T09:25:25.433Z,3188
2017-06-03T09:27:27.241Z,2996
2017-06-03T09:29:29.213Z,2856
2017-06-03T09:31:30.785Z,2820
2017-06-03T09:33:33.115Z,2548
2017-06-03T09:35:35.093Z,2460
2017-06-03T09:37:37.779Z,2928
2017-06-03T09:39:40.712Z,2768
2017-06-03T09:41:42.223Z,2340
2017-06-03T09:43:43.698Z,2728
2017-06-03T09:45:45.287Z,3308
2017-06-03T09:47:46.790Z,3508
2017-06-03T09:49:48.335Z,3216
2017-06-03T09:51:49.830Z,3008
2017-06-03T09:53:52.464Z,2436
2017-06-03T09:55:54.441Z,2356
2017-06-03T09:57:56.424Z,1888
2017-06-03T09:59:57.921Z,2088
2017-06-03T10:02:00.495Z,2100
2017-06-03T10:04:01.963Z,2216
2017-06-03T10:06:03.916Z,2012
2017-06-03T10:08:05.434Z,1732
2017-06-03T10:10:08.016Z,1900
2017-06-03T10:12:09.545Z,1952
2017-06-03T10:14:11.015Z,2196
2017-06-03T10:16:12.495Z,2020
2017-06-03T10:18:14.452Z,1852
2017-06-03T10:20:16.019Z,2000
2017-06-03T10:22:17.729Z,1976
2017-06-03T10:24:19.253Z,1952
2017-06-03T10:26:21.786Z,2088
2017-06-03T10:28:23.215Z,2176
2017-06-03T10:30:25.184Z,2020
2017-06-03T10:32:27.826Z,2100
2017-06-03T10:34:30.326Z,2076
2017-06-03T10:36:31.818Z,2344
2017-06-03T10:38:33.288Z,2380
2017-06-03T10:40:34.769Z,2360
2017-06-03T10:42:36.830Z,2124
2017-06-03T10:44:39.296Z,2108
2017-06-03T10:46:41.596Z,2160
2017-06-03T10:48:43.078Z,2068
2017-06-03T10:50:45.528Z,2020
2017-06-03T10:52:47.056Z,2192
2017-06-03T10:54:49.928Z,2316
2017-06-03T10:56:52.424Z,2408
2017-06-03T10:58:56.082Z,2544
2017-06-03T11:00:57.663Z,2676
2017-06-03T11:02:59.217Z,2488
2017-06-03T11:05:00.745Z,2536
2017-06-03T11:07:02.247Z,2384
2017-06-03T11:09:03.802Z,2604
2017-06-03T11:11:05.768Z,2552
2017-06-03T11:13:07.465Z,2396
2017-06-03T11:15:10.196Z,2472
2017-06-03T11:17:12.403Z,2488
2017-06-03T11:19:13.982Z,2288
2017-06-03T11:21:17.092Z,2556
2017-06-03T11:23:18.745Z,2312
2017-06-03T11:25:20.269Z,2344
2017-06-03T11:27:21.781Z,2360
2017-06-03T11:29:24.246Z,2480
2017-06-03T11:31:25.905Z,2436
2017-06-03T11:33:27.410Z,1436
2017-06-03T11:35:29.562Z,2172
2017-06-03T11:37:32.102Z,1908
2017-06-03T11:39:34.287Z,1792
2017-06-03T11:41:36.481Z,2060
2017-06-03T11:43:38.421Z,2044
2017-06-03T11:45:40.464Z,1736
2017-06-03T11:47:41.991Z,1836
2017-06-03T11:49:43.998Z,1856
2017-06-03T11:51:45.507Z,1868
2017-06-03T11:53:46.992Z,1852
2017-06-03T11:55:49.345Z,1292
2017-06-03T11:57:50.776Z,1240
2017-06-03T11:59:52.918Z,1288
2017-06-03T12:01:54.434Z,1496
2017-06-03T12:03:55.952Z,1404
2017-06-03T12:05:57.796Z,1340
2017-06-03T12:08:00.109Z,1140
2017-06-03T12:10:01.615Z,1240
2017-06-03T12:12:03.125Z,1160
2017-06-03T12:14:05.646Z,1172
2017-06-03T12:16:07.214Z,1084
2017-06-03T12:18:09.091Z,1304
2017-06-03T12:20:11.748Z,1208
2017-06-03T12:22:13.663Z,2092
2017-06-03T12:24:15.997Z,1252
2017-06-03T12:26:18.387Z,1160
2017-06-03T12:28:19.946Z,1072
2017-06-03T12:30:22.685Z,1064
2017-06-03T12:32:24.240Z,1156
2017-06-03T12:34:25.772Z,1172
2017-06-03T12:36:28.346Z,1232
2017-06-03T12:38:29.923Z,1040
2017-06-03T12:40:31.428Z,1004
2017-06-03T12:42:33.597Z,996
2017-06-03T12:44:35.658Z,952
2017-06-03T12:46:38.757Z,896
2017-06-03T12:48:40.274Z,844
2017-06-03T12:50:41.776Z,788
2017-06-03T12:52:44.632Z,736
2017-06-03T12:54:47.415Z,660
2017-06-03T12:56:50.061Z,564
2017-06-03T12:58:52.033Z,520
2017-06-03T13:00:53.564Z,516
2017-06-03T13:02:55.062Z,500
2017-06-03T13:04:56.609Z,476
2017-06-03T13:06:59.137Z,452
2017-06-03T13:09:01.645Z,444
2017-06-03T13:11:03.165Z,444
2017-06-03T13:13:04.689Z,440
2017-06-03T13:15:07.204Z,444
2017-06-03T13:17:08.748Z,456
2017-06-03T13:19:10.893Z,472
2017-06-03T13:21:12.359Z,484
2017-06-03T13:23:15.170Z,492
2017-06-03T13:25:17.653Z,500
2017-06-03T13:27:19.193Z,504
2017-06-03T13:29:20.724Z,520
2017-06-03T13:31:22.870Z,544
2017-06-03T13:33:25.637Z,544
2017-06-03T13:35:27.210Z,536
2017-06-03T13:37:29.169Z,536
2017-06-03T13:39:31.569Z,532
2017-06-03T13:41:33.103Z,520
2017-06-03T13:43:34.622Z,496
2017-06-03T13:45:36.141Z,488
2017-06-03T13:47:37.633Z,488
2017-06-03T13:49:39.823Z,492
2017-06-03T13:51:41.334Z,496
2017-06-03T13:53:43.574Z,504
2017-06-03T13:55:46.213Z,500
2017-06-03T13:57:47.713Z,508
2017-06-03T13:59:50.368Z,512
2017-06-03T14:01:52.922Z,520
2017-06-03T14:03:54.583Z,528
2017-06-03T14:05:57.118Z,520
2017-06-03T14:07:59.747Z,496
2017-06-03T14:10:01.274Z,468
2017-06-03T14:12:03.425Z,440
2017-06-03T14:14:06.272Z,420
2017-06-03T14:16:07.780Z,396
2017-06-03T14:18:09.258Z,388
2017-06-03T14:20:12.081Z,380
2017-06-03T14:22:13.610Z,376
2017-06-03T14:24:15.094Z,368
2017-06-03T14:26:16.597Z,372
2017-06-03T14:28:18.746Z,380
2017-06-03T14:30:20.348Z,380
2017-06-03T14:32:22.844Z,388
2017-06-03T14:34:24.415Z,424
2017-06-03T14:36:26.872Z,484
2017-06-03T14:38:29.432Z,552
2017-06-03T14:40:30.876Z,592
2017-06-03T14:42:33.547Z,612
2017-06-03T14:44:35.179Z,636
2017-06-03T14:46:37.188Z,680
2017-06-03T14:48:38.704Z,696
2017-06-03T14:50:40.179Z,708
2017-06-03T14:52:42.847Z,728
2017-06-03T14:54:44.273Z,748
2017-06-03T14:56:45.769Z,756
2017-06-03T14:58:47.283Z,740
2017-06-03T15:00:48.792Z,728
2017-06-03T15:02:50.281Z,720
2017-06-03T15:04:51.790Z,748
2017-06-03T15:06:53.282Z,824
2017-06-03T15:08:55.776Z,928
2017-06-03T15:10:57.337Z,888
2017-06-03T15:12:58.839Z,828
2017-06-03T15:15:00.351Z,792
2017-06-03T15:17:01.821Z,792
2017-06-03T15:19:03.332Z,820
2017-06-03T15:21:06.120Z,720
2017-06-03T15:23:07.684Z,720
2017-06-03T15:25:09.540Z,796
2017-06-03T15:27:11.080Z,816
2017-06-03T15:29:12.738Z,828
2017-06-03T15:31:15.357Z,804
2017-06-03T15:33:17.563Z,792
2017-06-03T15:35:19.730Z,788
2017-06-03T15:37:21.749Z,784
2017-06-03T15:39:23.291Z,784
2017-06-03T15:41:24.755Z,740
2017-06-03T15:43:26.243Z,720
2017-06-03T15:45:29.264Z,708
2017-06-03T15:47:30.674Z,720
2017-06-03T15:49:32.161Z,736
2017-06-03T15:51:33.678Z,752
2017-06-03T15:53:35.778Z,764
2017-06-03T15:55:37.658Z,740
2017-06-03T15:57:40.052Z,704
2017-06-03T15:59:41.567Z,676
2017-06-03T16:01:44.244Z,760
2017-06-03T16:03:46.796Z,756
2017-06-03T16:05:49.366Z,840
2017-06-03T16:07:51.982Z,852
2017-06-03T16:09:53.975Z,836
2017-06-03T16:11:55.455Z,772
2017-06-03T16:13:56.990Z,724
2017-06-03T16:15:58.679Z,728
2017-06-03T16:18:00.796Z,700
2017-06-03T16:20:02.296Z,672
2017-06-03T16:22:03.814Z,640
2017-06-03T16:24:05.768Z,620
2017-06-03T16:26:08.477Z,576
2017-06-03T16:28:10.053Z,520
2017-06-03T16:30:11.584Z,520
2017-06-03T16:32:13.109Z,552
2017-06-03T16:34:14.557Z,564
2017-06-03T16:36:16.706Z,560
2017-06-03T16:38:18.186Z,556
2017-06-03T16:40:20.272Z,540
2017-06-03T16:42:21.791Z,528
2017-06-03T16:44:24.730Z,528
2017-06-03T16:46:26.186Z,516
2017-06-03T16:48:28.977Z,500
2017-06-03T16:50:30.577Z,488
2017-06-03T16:52:32.048Z,476
2017-06-03T16:54:33.531Z,468
2017-06-03T16:56:36.277Z,460
2017-06-03T16:58:38.294Z,448
2017-06-03T17:00:40.349Z,444
2017-06-03T17:02:42.324Z,448
2017-06-03T17:04:43.847Z,440
2017-06-03T17:06:45.307Z,424
2017-06-03T17:08:46.813Z,416
2017-06-03T17:10:49.502Z,412
2017-06-03T17:12:50.977Z,416
2017-06-03T17:14:52.448Z,428
2017-06-03T17:16:53.925Z,424
2017-06-03T17:18:56.568Z,392
2017-06-03T17:20:58.115Z,376
2017-06-03T17:23:00.151Z,376
2017-06-03T17:25:02.282Z,380
2017-06-03T17:27:04.298Z,388
2017-06-03T17:29:06.321Z,384
2017-06-03T17:31:07.806Z,376
2017-06-03T17:33:10.819Z,360
2017-06-03T17:35:12.179Z,336
2017-06-03T17:37:14.118Z,312
2017-06-03T17:39:16.071Z,292
2017-06-03T17:41:17.602Z,276
2017-06-03T17:43:19.069Z,264
2017-06-03T17:45:22.079Z,248
2017-06-03T17:47:23.475Z,240
2017-06-03T17:49:24.949Z,232
2017-06-03T17:51:27.636Z,228
2017-06-03T17:53:29.214Z,228
2017-06-03T17:55:31.954Z,220
2017-06-03T17:57:34.801Z,216
2017-06-03T17:59:37.319Z,212
2017-06-03T18:01:40.197Z,208
2017-06-03T18:03:42.838Z,200
2017-06-03T18:05:44.285Z,196
2017-06-03T18:07:45.765Z,188
2017-06-03T18:09:47.238Z,184
2017-06-03T18:11:48.750Z,172
2017-06-03T18:13:50.684Z,164
2017-06-03T18:15:53.426Z,156
2017-06-03T18:17:55.016Z,148
2017-06-03T18:19:56.494Z,132
2017-06-03T18:21:57.999Z,120
2017-06-03T18:23:59.994Z,104
2017-06-03T18:26:01.989Z,88
2017-06-03T18:28:03.473Z,72
2017-06-03T18:30:05.526Z,60
2017-06-03T18:32:07.617Z,52
2017-06-03T18:34:09.174Z,40
2017-06-03T18:36:10.674Z,24
2017-06-03T18:38:12.737Z,12
2017-06-03T18:40:14.178Z,4
2017-06-03T18:42:15.694Z,4
2017-06-03T18:44:17.548Z,4
2017-06-03T18:46:19.061Z,8
2017-06-03T18:48:20.502Z,4
2017-06-03T18:50:22.324Z,8
2017-06-03T18:52:23.720Z,8
2017-06-03T18:54:25.199Z,8
2017-06-03T18:56:27.304Z,8
2017-06-03T18:58:28.809Z,8
2017-06-03T19:00:30.795Z,8
2017-06-03T19:02:32.317Z,8
2017-06-03T19:04:33.787Z,4
2017-06-03T19:06:35.674Z,4
2017-06-03T19:08:37.167Z,8
2017-06-03T19:10:39.121Z,12
2017-06-03T19:12:40.647Z,12
2017-06-03T19:14:42.668Z,16
2017-06-03T19:16:44.205Z,16
2017-06-03T19:18:45.673Z,16
2017-06-03T19:20:47.881Z,20
2017-06-03T19:22:49.877Z,16
2017-06-03T19:24:52.030Z,16
2017-06-03T19:26:54.193Z,12
2017-06-03T19:28:55.697Z,12
2017-06-03T19:30:57.205Z,8
2017-06-03T19:32:59.320Z,8
2017-06-03T19:35:01.349Z,4
2017-06-03T19:37:03.467Z,8
2017-06-03T19:39:04.959Z,8
2017-06-03T19:41:06.439Z,8
2017-06-03T19:43:07.961Z,4
2017-06-03T19:45:09.429Z,4
2017-06-03T19:47:10.897Z,4
2017-06-03T19:49:12.924Z,4
2017-06-03T19:51:14.910Z,0
2017-06-03T19:53:16.967Z,0
2017-06-03T19:55:18.964Z,0
2017-06-03T19:57:20.514Z,0
2017-06-03T19:59:22.482Z,0
2017-06-03T20:01:23.955Z,0
2017-06-03T20:03:25.465Z,4
2017-06-03T20:05:26.952Z,0
2017-06-03T20:07:28.424Z,0
2017-06-03T20:09:30.171Z,0
2017-06-03T20:11:31.608Z,0
2017-06-03T20:13:33.560Z,0
2017-06-03T20:15:35.040Z,0
2017-06-03T20:17:37.105Z,0
2017-06-03T20:19:38.515Z,0
2017-06-03T20:21:39.941Z,0
2017-06-03T20:23:41.939Z,0
2017-06-03T20:25:44.061Z,0
2017-06-03T20:27:45.509Z,0
2017-06-03T20:29:46.940Z,0
2017-06-03T20:31:48.373Z,0
2017-06-03T20:33:50.354Z,0
2017-06-03T20:35:52.373Z,0
2017-06-03T20:37:53.887Z,0
2017-06-03T20:39:55.791Z,0
2017-06-03T20:41:57.775Z,0
2017-06-03T20:43:59.297Z,0
2017-06-03T20:46:01.358Z,0
2017-06-03T20:48:03.254Z,0
2017-06-03T20:50:04.768Z,0
2017-06-03T20:52:06.243Z,0
2017-06-03T20:54:07.677Z,0
2017-06-03T20:56:09.680Z,0
2017-06-03T20:58:11.189Z,0
2017-06-03T21:00:12.645Z,0
2017-06-03T21:02:14.607Z,0
2017-06-03T21:04:16.650Z,0
2017-06-03T21:06:18.730Z,0
2017-06-03T21:08:20.713Z,0
2017-06-03T21:10:22.160Z,0
2017-06-03T21:12:24.203Z,0
2017-06-03T21:14:26.272Z,0
2017-06-03T21:16:27.716Z,0
2017-06-03T21:18:29.845Z,0
2017-06-03T21:20:31.361Z,0
2017-06-03T21:22:33.459Z,0
2017-06-03T21:24:35.615Z,0
2017-06-03T21:26:37.100Z,0
2017-06-03T21:28:38.580Z,0
2017-06-03T21:30:40.044Z,0
2017-06-03T21:32:41.518Z,0
2017-06-03T21:34:43.624Z,0
2017-06-03T21:36:45.942Z,0
2017-06-03T21:38:48.102Z,0
2017-06-03T21:40:50.272Z,0
2017-06-03T21:42:52.494Z,0
2017-06-03T21:44:53.950Z,0
2017-06-03T21:46:55.450Z,0
2017-06-03T21:48:57.408Z,0
2017-06-03T21:50:58.907Z,0
2017-06-03T21:53:00.353Z,0
2017-06-03T21:55:02.440Z,0
2017-06-03T21:57:03.957Z,0
2017-06-03T21:59:06.280Z,0
2017-06-03T22:01:07.719Z,0
2017-06-03T22:03:10.058Z,0
2017-06-03T22:05:11.585Z,0
2017-06-03T22:07:13.656Z,0
2017-06-03T22:09:15.519Z,0
2017-06-03T22:11:17.012Z,0
2017-06-03T22:13:19.151Z,0
2017-06-03T22:15:21.377Z,0
2017-06-03T22:17:23.327Z,0
2017-06-03T22:19:24.776Z,0
2017-06-03T22:21:26.252Z,0
2017-06-03T22:23:27.717Z,0
2017-06-03T22:25:29.150Z,0
2017-06-03T22:27:31.434Z,0
2017-06-03T22:29:33.776Z,0
2017-06-03T22:31:35.275Z,0
2017-06-03T22:33:36.704Z,0
2017-06-03T22:35:38.414Z,0
2017-06-03T22:37:39.851Z,0
2017-06-03T22:39:41.285Z,0
2017-06-03T22:41:42.715Z,0
2017-06-03T22:43:44.171Z,0
2017-06-03T22:45:45.578Z,0
2017-06-03T22:47:47.012Z,0
2017-06-03T22:49:49.401Z,0
2017-06-03T22:51:50.866Z,0
2017-06-03T22:53:52.720Z,0
2017-06-03T22:55:54.131Z,0
2017-06-03T22:57:55.976Z,0
2017-06-03T22:59:58.023Z,0
2017-06-03T23:01:59.566Z,0
2017-06-03T23:04:01.244Z,0
2017-06-03T23:06:03.680Z,0
2017-06-03T23:08:05.139Z,0
2017-06-03T23:10:06.589Z,0
2017-06-03T23:12:08.073Z,0
2017-06-03T23:14:10.367Z,0
2017-06-03T23:16:11.848Z,0
2017-06-03T23:18:14.015Z,0
2017-06-03T23:20:15.486Z,0
2017-06-03T23:22:17.509Z,0
2017-06-03T23:24:18.982Z,0
2017-06-03T23:26:21.174Z,0
2017-06-03T23:28:23.222Z,0
2017-06-03T23:30:25.141Z,0
2017-06-03T23:32:26.664Z,0
2017-06-03T23:34:28.820Z,0
2017-06-03T23:36:30.281Z,0
2017-06-03T23:38:32.405Z,0
2017-06-03T23:40:33.877Z,0
2017-06-03T23:42:35.818Z,0
2017-06-03T23:44:37.331Z,0
2017-06-03T23:46:38.790Z,0
2017-06-03T23:48:40.292Z,0
2017-06-03T23:50:41.803Z,0
2017-06-03T23:52:44.167Z,0
2017-06-03T23:54:46.249Z,0
2017-06-03T23:56:47.706Z,0
2017-06-03T23:58:49.158Z,0
